Time;durP1;ratioP1;P1;durP2;ratioP2;P2;SDS_P1;SDS_P2;PMS_P1;PMS_P2;Temp;Humidity;BMP_temperature;BMP_pressure;BME280_temperature;BME280_humidity;BME280_pressure;Samples;Min_cycle;Max_cycle;Signal;HPM_P1;HPM_P2
2022/09/11 00:01:04;;;;;;;5.13;2.78;;;;;;;22.63;nan;-24445.41;5035100;28;20176;-75
2022/09/11 00:03:30;;;;;;;5.60;3.28;;;;;;;22.65;nan;-24446.09;5034641;28;20167;-75
2022/09/11 00:06:01;;;;;;;4.07;2.88;;;;;;;22.44;nan;-24440.28;5034628;28;20175;-75
2022/09/11 00:08:26;;;;;;;3.72;2.67;;;;;;;22.48;nan;-24441.53;5034386;28;20201;-75
2022/09/11 00:10:52;;;;;;;4.25;2.83;;;;;;;22.50;nan;-24441.81;5033033;28;20179;-76
2022/09/11 00:13:20;;;;;;;4.28;2.88;;;;;;;22.46;nan;-24440.84;5035118;28;20194;-75
2022/09/11 00:15:49;;;;;;;4.85;2.92;;;;;;;22.55;nan;-24443.19;5034301;28;20195;-75
2022/09/11 00:18:17;;;;;;;5.03;3.20;;;;;;;22.42;nan;-24439.88;5034138;28;20176;-75
2022/09/11 00:20:51;;;;;;;3.97;2.92;;;;;;;22.36;nan;-24438.22;5034716;28;20671;-75
2022/09/11 00:23:18;;;;;;;3.70;2.72;;;;;;;22.12;nan;-24431.44;5033862;28;20571;-76
2022/09/11 00:25:45;;;;;;;4.57;2.83;;;;;;;22.43;nan;-24440.00;5034302;28;20246;-75
2022/09/11 00:28:14;;;;;;;3.53;2.55;;;;;;;22.37;nan;-24438.34;5033946;28;20230;-75
2022/09/11 00:30:43;;;;;;;4.13;2.63;;;;;;;22.28;nan;-24436.00;5032876;28;20288;-75
2022/09/11 00:33:15;;;;;;;5.20;3.08;;;;;;;21.90;nan;-24425.47;5032628;28;20277;-77
2022/09/11 00:35:41;;;;;;;4.85;3.05;;;;;;;22.22;nan;-24434.19;5032631;28;20179;-78
2022/09/11 00:38:07;;;;;;;4.28;2.80;;;;;;;22.12;nan;-24431.44;5032398;28;20182;-78
2022/09/11 00:40:54;;;;;;;4.35;3.03;;;;;;;22.13;nan;-24431.72;5032516;28;20266;-75
2022/09/11 00:43:20;;;;;;;5.45;2.92;;;;;;;22.19;nan;-24433.38;5033343;28;20183;-77
2022/09/11 00:45:54;;;;;;;4.90;2.75;;;;;;;22.11;nan;-24431.16;5033664;28;20290;-77
2022/09/11 00:48:23;;;;;;;4.63;2.88;;;;;;;22.08;nan;-24430.47;5033655;28;20243;-78
2022/09/11 00:50:50;;;;;;;5.03;2.90;;;;;;;21.91;nan;-24425.75;5033831;28;20206;-76
2022/09/11 00:53:19;;;;;;;3.88;3.15;;;;;;;21.87;nan;-24424.66;5033711;28;20269;-76
2022/09/11 00:55:52;;;;;;;6.65;3.05;;;;;;;21.77;nan;-24422.00;5033647;28;20176;-76
2022/09/11 00:58:26;;;;;;;4.28;3.05;;;;;;;21.89;nan;-24425.34;5033799;28;20183;-76
2022/09/11 01:00:54;;;;;;;4.55;3.28;;;;;;;21.65;nan;-24418.56;5031935;28;20195;-75
2022/09/11 01:03:20;;;;;;;5.20;3.15;;;;;;;21.66;nan;-24418.81;5033236;28;20175;-76
2022/09/11 01:05:47;;;;;;;5.07;3.05;;;;;;;21.84;nan;-24423.81;5033643;28;20180;-75
2022/09/11 01:08:13;;;;;;;4.90;2.97;;;;;;;21.47;nan;-24413.84;5033230;28;20203;-76
2022/09/11 01:10:59;;;;;;;5.00;3.50;;;;;;;21.59;nan;-24417.03;5033250;28;20527;-76
2022/09/11 01:13:55;;;;;;;5.32;3.15;;;;;;;21.55;nan;-24416.06;5031539;28;20224;-76
2022/09/11 01:16:48;;;;;;;6.50;3.50;;;;;;;21.21;nan;-24406.63;5033300;28;20243;-76
2022/09/11 01:20:10;;;;;;;5.63;3.17;;;;;;;21.56;nan;-24416.34;5032145;28;20249;-76
2022/09/11 01:23:01;;;;;;;4.90;3.25;;;;;;;21.13;nan;-24404.56;5011327;28;20223;-76
2022/09/11 01:26:04;;;;;;;5.47;2.97;;;;;;;21.26;nan;-24407.88;5011064;28;20314;-76
2022/09/11 01:28:38;;;;;;;5.80;3.10;;;;;;;20.99;nan;-24400.66;5030062;28;20702;-77
2022/09/11 01:31:11;;;;;;;5.72;2.90;;;;;;;20.96;nan;-24399.69;5032930;28;20183;-76
2022/09/11 01:34:08;;;;;;;5.45;3.10;;;;;;;21.10;nan;-24403.56;5032802;28;20172;-77
2022/09/11 01:36:52;;;;;;;5.07;3.10;;;;;;;21.09;nan;-24403.31;5033899;28;20210;-77
2022/09/11 01:39:21;;;;;;;5.10;3.45;;;;;;;21.20;nan;-24406.34;5041340;28;20638;-77
2022/09/11 01:42:02;;;;;;;6.78;3.35;;;;;;;21.09;nan;-24403.31;5032634;28;20183;-77
2022/09/11 01:44:37;;;;;;;5.35;3.35;;;;;;;21.17;nan;-24405.38;5032589;28;20183;-77
2022/09/11 01:47:06;;;;;;;4.30;2.78;;;;;;;21.22;nan;-24406.78;5032743;28;20641;-77
2022/09/11 01:49:44;;;;;;;4.78;3.10;;;;;;;20.95;nan;-24399.56;5033290;28;20179;-77
2022/09/11 01:52:16;;;;;;;6.15;3.25;;;;;;;20.63;nan;-24390.69;5032626;28;20207;-77
2022/09/11 01:54:46;;;;;;;4.93;3.25;;;;;;;20.73;nan;-24393.44;5032690;28;20233;-77
2022/09/11 01:57:19;;;;;;;4.25;3.03;;;;;;;20.50;nan;-24387.22;5032330;28;20171;-77
2022/09/11 01:59:52;;;;;;;4.28;2.83;;;;;;;20.58;nan;-24389.44;5032156;28;20167;-77
2022/09/11 02:02:23;;;;;;;4.88;3.35;;;;;;;21.01;nan;-24401.22;5032461;28;20281;-77
2022/09/11 02:04:55;;;;;;;4.63;2.95;;;;;;;21.06;nan;-24402.59;5032290;28;20593;-76
2022/09/11 02:07:28;;;;;;;6.40;3.60;;;;;;;20.87;nan;-24397.19;5032124;28;20187;-76
2022/09/11 02:10:05;;;;;;;6.15;3.42;;;;;;;20.84;nan;-24396.38;5032431;28;20205;-76
2022/09/11 02:12:45;;;;;;;4.72;2.80;;;;;;;20.23;nan;-24379.84;5031274;28;20179;-75
2022/09/11 02:15:12;;;;;;;6.90;3.55;;;;;;;20.80;nan;-24395.25;5030062;28;20168;-75
2022/09/11 02:18:13;;;;;;;5.32;3.53;;;;;;;20.79;nan;-24395.13;5032196;28;20270;-75
2022/09/11 02:20:41;;;;;;;5.50;3.38;;;;;;;20.41;nan;-24384.56;5031185;28;20222;-76
2022/09/11 02:23:06;;;;;;;8.02;3.58;;;;;;;20.66;nan;-24391.66;5031276;28;20182;-76
2022/09/11 02:25:31;;;;;;;7.60;3.70;;;;;;;20.42;nan;-24384.84;5032233;28;20266;-75
2022/09/11 02:27:58;;;;;;;4.65;3.10;;;;;;;20.79;nan;-24394.97;5031771;28;20195;-75
2022/09/11 02:30:23;;;;;;;4.95;2.88;;;;;;;20.84;nan;-24396.38;5030588;28;20666;-75
2022/09/11 02:32:49;;;;;;;4.13;3.20;;;;;;;20.79;nan;-24395.13;5031136;28;20254;-75
2022/09/11 02:35:15;;;;;;;4.78;2.83;;;;;;;20.78;nan;-24394.69;5032146;28;20584;-75
2022/09/11 02:38:10;;;;;;;5.68;3.10;;;;;;;20.81;nan;-24395.66;5029066;28;20187;-75
2022/09/11 02:40:45;;;;;;;5.82;2.70;;;;;;;20.33;nan;-24382.50;5031664;28;20168;-75
2022/09/11 02:43:16;;;;;;;4.85;3.05;;;;;;;20.55;nan;-24388.47;5030365;28;20197;-76
2022/09/11 02:46:22;;;;;;;8.98;3.67;;;;;;;20.36;nan;-24383.19;5031703;28;20221;-75
2022/09/11 02:48:57;;;;;;;4.78;3.28;;;;;;;20.04;nan;-24374.44;5031133;28;20214;-75
2022/09/11 02:51:54;;;;;;;6.72;3.67;;;;;;;20.32;nan;-24382.06;5030116;28;20225;-76
2022/09/11 02:54:27;;;;;;;3.13;2.63;;;;;;;19.85;nan;-24369.44;5031380;28;20163;-77
2022/09/11 02:57:05;;;;;;;3.58;2.42;;;;;;;19.99;nan;-24373.19;5031020;28;20180;-76
2022/09/11 02:59:45;;;;;;;4.65;2.88;;;;;;;19.59;nan;-24362.06;5031253;28;20170;-76
2022/09/11 03:02:14;;;;;;;7.50;2.95;;;;;;;19.89;nan;-24370.41;5031598;28;20665;-76
2022/09/11 03:04:40;;;;;;;8.45;4.05;;;;;;;19.26;nan;-24353.00;5031396;28;20266;-76
2022/09/11 03:07:07;;;;;;;5.53;3.72;;;;;;;20.19;nan;-24378.75;5029805;28;20195;-76
2022/09/11 03:09:33;;;;;;;4.40;3.08;;;;;;;20.26;nan;-24380.53;5028887;28;20230;-76
2022/09/11 03:12:00;;;;;;;7.20;3.10;;;;;;;20.32;nan;-24382.22;5031422;28;20171;-76
2022/09/11 03:14:25;;;;;;;4.85;3.20;;;;;;;20.10;nan;-24376.25;5031881;28;20209;-76
2022/09/11 03:16:50;;;;;;;6.75;3.17;;;;;;;20.24;nan;-24380.13;5030653;28;20647;-76
2022/09/11 03:19:16;;;;;;;4.30;2.67;;;;;;;20.56;nan;-24388.75;5031822;28;20634;-76
2022/09/11 03:21:41;;;;;;;6.70;3.15;;;;;;;20.24;nan;-24380.13;5030119;28;20223;-76
2022/09/11 03:24:08;;;;;;;8.15;3.20;;;;;;;20.31;nan;-24381.94;5030240;28;20270;-76
2022/09/11 03:26:34;;;;;;;5.45;3.17;;;;;;;20.43;nan;-24385.28;5032883;28;20175;-77
2022/09/11 03:29:00;;;;;;;5.05;3.17;;;;;;;20.46;nan;-24385.97;5034082;28;21324;-76
2022/09/11 03:31:27;;;;;;;5.03;3.10;;;;;;;20.17;nan;-24378.19;5035111;28;20246;-76
2022/09/11 03:33:52;;;;;;;4.43;2.80;;;;;;;20.28;nan;-24381.22;5035237;28;20206;-76
2022/09/11 03:36:19;;;;;;;6.60;3.42;;;;;;;20.54;nan;-24388.19;5035416;28;20233;-76
2022/09/11 03:38:45;;;;;;;9.07;3.25;;;;;;;20.15;nan;-24377.63;5035239;28;20176;-76
2022/09/11 03:41:10;;;;;;;4.15;2.67;;;;;;;20.32;nan;-24382.06;5034878;28;20175;-76
2022/09/11 03:43:36;;;;;;;5.03;2.90;;;;;;;20.55;nan;-24388.59;5035211;28;20168;-76
2022/09/11 03:46:02;;;;;;;4.22;2.63;;;;;;;20.33;nan;-24382.50;5035438;28;20159;-76
2022/09/11 03:48:28;;;;;;;3.92;2.60;;;;;;;20.38;nan;-24383.75;5034809;28;20324;-77
2022/09/11 03:50:54;;;;;;;4.75;3.20;;;;;;;20.33;nan;-24382.50;5034726;28;20174;-76
2022/09/11 03:53:19;;;;;;;6.15;3.55;;;;;;;20.50;nan;-24387.06;5035006;28;20727;-76
2022/09/11 03:55:45;;;;;;;5.13;3.20;;;;;;;20.36;nan;-24383.31;5034524;28;20167;-76
2022/09/11 03:58:11;;;;;;;5.18;2.72;;;;;;;20.64;nan;-24391.09;5035031;28;20203;-76
2022/09/11 04:00:43;;;;;;;4.10;2.83;;;;;;;20.72;nan;-24393.19;5035198;28;20179;-76
2022/09/11 04:03:10;;;;;;;3.55;2.50;;;;;;;20.69;nan;-24392.34;5034775;28;20202;-76
2022/09/11 04:05:37;;;;;;;4.07;2.50;;;;;;;20.39;nan;-24384.03;5034573;28;20175;-76
2022/09/11 04:08:03;;;;;;;3.33;2.47;;;;;;;20.64;nan;-24391.09;5034276;28;20198;-76
2022/09/11 04:10:31;;;;;;;5.68;3.58;;;;;;;20.81;nan;-24395.66;5034050;28;20646;-76
2022/09/11 04:12:56;;;;;;;4.28;2.50;;;;;;;20.89;nan;-24397.91;5034519;28;20204;-76
2022/09/11 04:15:21;;;;;;;5.55;3.30;;;;;;;20.56;nan;-24388.75;5034606;28;20183;-76
2022/09/11 04:17:48;;;;;;;4.57;2.55;;;;;;;20.40;nan;-24384.44;5033721;28;20171;-77
2022/09/11 04:20:13;;;;;;;4.57;2.85;;;;;;;21.06;nan;-24402.47;5032823;28;20227;-76
2022/09/11 04:22:39;;;;;;;3.90;2.63;;;;;;;20.99;nan;-24400.53;5033995;28;20675;-76
2022/09/11 04:25:06;;;;;;;4.45;2.85;;;;;;;20.96;nan;-24399.84;5034168;28;20166;-77
2022/09/11 04:27:32;;;;;;;3.85;2.63;;;;;;;20.90;nan;-24398.03;5034265;28;20712;-77
2022/09/11 04:29:57;;;;;;;4.22;3.13;;;;;;;20.70;nan;-24392.63;5032846;28;20179;-77
2022/09/11 04:32:22;;;;;;;5.28;2.88;;;;;;;20.82;nan;-24395.81;5034104;28;20172;-77
2022/09/11 04:34:48;;;;;;;6.00;3.17;;;;;;;21.00;nan;-24400.94;5034111;28;20639;-77
2022/09/11 04:37:14;;;;;;;6.80;2.65;;;;;;;21.22;nan;-24406.78;5033997;28;20174;-78
2022/09/11 04:39:40;;;;;;;4.53;2.38;;;;;;;20.83;nan;-24396.09;5036620;28;20222;-77
2022/09/11 04:42:06;;;;;;;5.75;3.20;;;;;;;21.13;nan;-24404.41;5043840;28;20623;-77
2022/09/11 04:44:33;;;;;;;4.65;2.72;;;;;;;21.31;nan;-24409.28;5033738;28;20179;-76
2022/09/11 04:46:58;;;;;;;4.32;2.97;;;;;;;21.19;nan;-24405.94;5040177;28;20290;-77
2022/09/11 04:49:24;;;;;;;4.03;2.67;;;;;;;21.59;nan;-24417.03;5040331;28;20262;-78
2022/09/11 04:51:49;;;;;;;4.45;2.58;;;;;;;21.34;nan;-24410.25;5034582;28;20215;-77
2022/09/11 04:54:17;;;;;;;4.50;3.15;;;;;;;21.95;nan;-24426.88;5035721;28;20312;-63
2022/09/11 04:56:43;;;;;;;3.85;2.83;;;;;;;21.79;nan;-24422.56;5035719;28;20692;-62
2022/09/11 04:59:21;;;;;;;4.15;2.55;;;;;;;22.06;nan;-24429.91;5045831;28;20198;-63
2022/09/11 05:01:47;;;;;;;3.72;2.38;;;;;;;21.93;nan;-24426.44;5037852;28;20175;-63
2022/09/11 05:04:14;;;;;;;4.57;2.97;;;;;;;21.81;nan;-24423.13;5033677;28;20187;-63
2022/09/11 05:06:41;;;;;;;3.35;2.47;;;;;;;22.11;nan;-24431.28;5043241;28;20270;-63
2022/09/11 05:09:08;;;;;;;4.35;2.78;;;;;;;22.55;nan;-24443.19;5037963;28;20176;-64
2022/09/11 05:11:35;;;;;;;4.70;2.75;;;;;;;22.41;nan;-24439.59;5040828;28;20176;-63
2022/09/11 05:14:01;;;;;;;3.80;3.00;;;;;;;22.66;nan;-24446.38;5039742;28;20284;-63
2022/09/11 05:16:28;;;;;;;3.60;2.85;;;;;;;22.77;nan;-24449.28;5040040;28;20199;-63
2022/09/11 05:18:55;;;;;;;4.15;2.90;;;;;;;22.97;nan;-24454.66;5042055;28;20194;-63
2022/09/11 05:21:23;;;;;;;4.78;2.80;;;;;;;22.64;nan;-24445.81;5042736;28;20226;-63
2022/09/11 05:23:53;;;;;;;4.35;2.97;;;;;;;23.22;nan;-24461.56;5042325;28;20226;-63
2022/09/11 05:26:30;;;;;;;4.32;3.20;;;;;;;23.19;nan;-24460.88;5041162;28;20199;-63
2022/09/11 05:29:06;;;;;;;3.92;2.60;;;;;;;23.37;nan;-24465.72;5039370;28;20276;-63
2022/09/11 05:31:31;;;;;;;6.85;2.78;;;;;;;23.20;nan;-24461.03;5038539;28;20178;-63
2022/09/11 05:34:02;;;;;;;4.45;2.83;;;;;;;23.65;nan;-24473.47;5045646;28;20660;-63
2022/09/11 05:36:29;;;;;;;6.45;2.63;;;;;;;23.38;nan;-24466.00;5045586;28;20178;-63
2022/09/11 05:38:55;;;;;;;3.20;2.40;;;;;;;23.68;nan;-24474.16;5036666;28;20176;-63
2022/09/11 05:41:21;;;;;;;4.47;2.50;;;;;;;23.50;nan;-24469.31;5040493;28;20692;-63
2022/09/11 05:43:47;;;;;;;4.35;2.55;;;;;;;23.67;nan;-24474.00;5042433;28;20237;-63
2022/09/11 05:46:18;;;;;;;3.60;2.60;;;;;;;23.80;nan;-24477.31;5035954;28;20194;-63
2022/09/11 05:48:44;;;;;;;3.38;2.33;;;;;;;23.54;nan;-24470.28;5036038;28;20212;-64
2022/09/11 05:51:20;;;;;;;4.30;2.40;;;;;;;23.81;nan;-24477.75;5035600;28;20664;-64
2022/09/11 05:53:46;;;;;;;3.60;2.40;;;;;;;23.87;nan;-24479.38;5036602;28;20186;-63
2022/09/11 05:56:17;;;;;;;4.07;2.80;;;;;;;23.99;nan;-24482.56;5038421;28;20187;-63
2022/09/11 05:58:45;;;;;;;5.18;2.67;;;;;;;24.07;nan;-24484.91;5047543;28;20179;-63
2022/09/11 06:01:16;;;;;;;4.10;2.58;;;;;;;23.84;nan;-24478.56;5045708;28;20282;-63
2022/09/11 06:03:42;;;;;;;3.65;2.55;;;;;;;24.18;nan;-24487.81;5044578;28;20178;-63
2022/09/11 06:06:10;;;;;;;4.57;2.50;;;;;;;24.28;nan;-24490.56;5039280;28;20562;-63
2022/09/11 06:08:37;;;;;;;4.43;2.72;;;;;;;24.17;nan;-24487.53;5043077;28;20222;-63
2022/09/11 06:11:08;;;;;;;4.05;3.03;;;;;;;24.18;nan;-24487.94;5047492;28;20273;-63
2022/09/11 06:13:37;;;;;;;4.28;2.75;;;;;;;23.86;nan;-24478.97;5043910;28;20171;-63
2022/09/11 06:16:06;;;;;;;3.38;2.55;;;;;;;23.81;nan;-24477.59;5035709;28;20190;-63
2022/09/11 06:18:32;;;;;;;6.30;2.95;;;;;;;24.02;nan;-24483.41;5037843;28;20182;-64
2022/09/11 06:20:59;;;;;;;6.10;2.65;;;;;;;24.35;nan;-24492.50;5036111;28;20235;-63
2022/09/11 06:23:25;;;;;;;2.95;2.17;;;;;;;24.28;nan;-24490.56;5040171;28;20189;-61
2022/09/11 06:25:53;;;;;;;3.42;2.47;;;;;;;24.16;nan;-24487.25;5035666;28;20179;-63
2022/09/11 06:28:22;;;;;;;3.50;2.70;;;;;;;24.33;nan;-24491.94;5023410;28;20206;-64
2022/09/11 06:30:51;;;;;;;2.97;2.30;;;;;;;24.10;nan;-24485.75;5032194;28;20263;-64
2022/09/11 06:33:19;;;;;;;4.38;2.80;;;;;;;24.09;nan;-24485.47;5037809;28;20240;-63
2022/09/11 06:36:06;;;;;;;2.83;2.13;;;;;;;24.68;nan;-24501.47;5036138;28;20187;-63
2022/09/11 06:38:33;;;;;;;4.18;2.70;;;;;;;24.72;nan;-24502.41;5039193;28;21439;-64
2022/09/11 06:41:07;;;;;;;3.22;2.42;;;;;;;24.99;nan;-24510.00;5035743;28;20218;-65
2022/09/11 06:43:33;;;;;;;5.28;2.90;;;;;;;24.94;nan;-24508.47;5037310;28;20571;-64
2022/09/11 06:46:11;;;;;;;5.60;2.80;;;;;;;25.01;nan;-24510.41;5036336;28;20199;-64
2022/09/11 06:48:47;;;;;;;3.78;2.50;;;;;;;24.85;nan;-24506.00;5043080;28;20210;-64
2022/09/11 06:51:16;;;;;;;3.85;2.85;;;;;;;24.94;nan;-24508.63;5041942;28;20275;-64
2022/09/11 06:53:42;;;;;;;3.67;2.47;;;;;;;25.28;nan;-24517.72;5056215;28;20615;-64
2022/09/11 06:56:13;;;;;;;3.75;2.55;;;;;;;25.20;nan;-24515.50;5036585;28;20191;-63
2022/09/11 06:58:40;;;;;;;6.95;2.78;;;;;;;25.19;nan;-24515.38;5036471;28;20186;-63
2022/09/11 07:01:09;;;;;;;3.53;2.45;;;;;;;25.09;nan;-24512.63;5035666;28;20217;-63
2022/09/11 07:03:34;;;;;;;3.33;2.42;;;;;;;25.16;nan;-24514.41;5045322;28;20179;-64
2022/09/11 07:06:00;;;;;;;3.10;2.20;;;;;;;25.28;nan;-24517.84;5045964;28;20189;-63
2022/09/11 07:08:26;;;;;;;8.93;2.70;;;;;;;25.49;nan;-24523.63;5035172;28;20217;-63
2022/09/11 07:10:52;;;;;;;2.97;2.50;;;;;;;25.42;nan;-24521.69;5041703;28;20270;-63
2022/09/11 07:13:18;;;;;;;3.47;2.60;;;;;;;25.65;nan;-24527.75;5043794;28;20279;-65
2022/09/11 07:15:46;;;;;;;3.67;2.33;;;;;;;25.98;nan;-24536.81;5039123;28;20191;-64
2022/09/11 07:18:12;;;;;;;4.82;2.70;;;;;;;25.73;nan;-24529.94;5045530;28;20223;-65
2022/09/11 07:20:40;;;;;;;3.38;2.65;;;;;;;25.75;nan;-24530.66;5039492;28;20237;-64
2022/09/11 07:23:06;;;;;;;3.55;2.35;;;;;;;25.94;nan;-24535.88;5047252;28;20179;-65
2022/09/11 07:25:37;;;;;;;4.70;3.17;;;;;;;25.79;nan;-24531.59;5041036;28;20186;-64
2022/09/11 07:28:04;;;;;;;5.55;3.33;;;;;;;25.95;nan;-24536.00;5040482;28;20210;-63
2022/09/11 07:30:31;;;;;;;5.93;3.20;;;;;;;25.93;nan;-24535.59;5044056;28;20278;-64
2022/09/11 07:32:56;;;;;;;3.72;2.70;;;;;;;25.94;nan;-24535.88;5043791;28;20729;-63
2022/09/11 07:35:22;;;;;;;4.38;2.72;;;;;;;25.78;nan;-24531.31;5043896;28;20190;-64
2022/09/11 07:37:47;;;;;;;3.55;2.80;;;;;;;25.87;nan;-24533.94;5042492;28;20190;-63
2022/09/11 07:40:14;;;;;;;2.53;1.98;;;;;;;26.18;nan;-24542.19;5039834;28;20273;-64
2022/09/11 07:42:40;;;;;;;3.42;2.45;;;;;;;26.13;nan;-24540.94;5039584;28;20265;-64
2022/09/11 07:45:06;;;;;;;3.72;2.20;;;;;;;26.16;nan;-24541.63;5038558;28;20278;-64
2022/09/11 07:47:32;;;;;;;3.70;2.25;;;;;;;26.11;nan;-24540.41;5040627;28;20281;-64
2022/09/11 07:49:58;;;;;;;3.33;2.28;;;;;;;26.16;nan;-24541.78;5038871;28;20191;-63
2022/09/11 07:52:24;;;;;;;5.40;2.53;;;;;;;26.11;nan;-24540.25;5040772;28;20175;-63
2022/09/11 07:54:50;;;;;;;3.40;2.50;;;;;;;26.25;nan;-24544.25;5038184;28;20184;-64
2022/09/11 07:57:15;;;;;;;2.92;2.50;;;;;;;25.95;nan;-24536.13;5042573;28;20187;-63
2022/09/11 07:59:41;;;;;;;3.63;2.28;;;;;;;26.22;nan;-24543.28;5038612;28;20190;-64
2022/09/11 08:02:10;;;;;;;5.88;2.58;;;;;;;26.22;nan;-24543.28;5038509;28;20183;-63
2022/09/11 08:04:35;;;;;;;3.10;2.30;;;;;;;25.77;nan;-24531.06;5043458;28;20265;-63
2022/09/11 08:07:00;;;;;;;3.70;2.40;;;;;;;25.91;nan;-24534.91;5042315;28;20582;-63
2022/09/11 08:09:27;;;;;;;3.55;2.15;;;;;;;26.04;nan;-24538.47;5042444;28;20178;-64
2022/09/11 08:11:57;;;;;;;3.53;2.50;;;;;;;26.27;nan;-24544.78;5049122;28;20741;-63
2022/09/11 08:14:26;;;;;;;3.35;2.22;;;;;;;26.40;nan;-24548.09;5037629;28;20270;-63
2022/09/11 08:16:52;;;;;;;2.97;2.17;;;;;;;26.01;nan;-24537.66;5037773;28;20188;-64
2022/09/11 08:19:22;;;;;;;3.95;2.42;;;;;;;26.27;nan;-24544.66;5039820;28;20183;-63
2022/09/11 08:21:49;;;;;;;4.20;2.60;;;;;;;26.21;nan;-24543.16;5033536;28;20234;-63
2022/09/11 08:24:21;;;;;;;5.63;2.63;;;;;;;26.36;nan;-24547.28;5039709;28;20189;-63
2022/09/11 08:26:47;;;;;;;3.97;2.67;;;;;;;26.43;nan;-24548.91;5033703;28;20685;-63
2022/09/11 08:29:12;;;;;;;3.53;2.58;;;;;;;27.09;nan;-24566.91;5038068;28;21058;-64
2022/09/11 08:31:38;;;;;;;3.65;2.33;;;;;;;26.86;nan;-24560.59;5038857;28;20975;-64
2022/09/11 08:34:03;;;;;;;3.40;2.60;;;;;;;27.02;nan;-24565.13;5037999;28;20198;-64
2022/09/11 08:36:29;;;;;;;3.80;2.78;;;;;;;27.18;nan;-24569.38;5040006;28;20593;-64
2022/09/11 08:38:55;;;;;;;3.63;2.70;;;;;;;26.84;nan;-24560.16;5037486;28;20630;-63
2022/09/11 08:41:47;;;;;;;3.55;2.50;;;;;;;27.20;nan;-24570.06;5039348;28;20205;-64
2022/09/11 08:44:22;;;;;;;3.80;2.45;;;;;;;27.32;nan;-24573.22;5040038;28;20681;-64
2022/09/11 08:46:54;;;;;;;4.05;2.58;;;;;;;27.03;nan;-24565.38;5043160;28;20197;-65
2022/09/11 08:49:35;;;;;;;3.63;2.78;;;;;;;27.16;nan;-24568.81;5043571;28;20247;-64
2022/09/11 08:52:07;;;;;;;5.40;3.00;;;;;;;27.45;nan;-24576.63;5041946;28;20270;-65
2022/09/11 08:54:36;;;;;;;3.35;2.40;;;;;;;27.47;nan;-24577.19;5039527;28;20183;-64
2022/09/11 08:57:26;;;;;;;4.18;2.90;;;;;;;27.52;nan;-24578.69;5036143;28;20183;-64
2022/09/11 09:00:13;;;;;;;3.80;2.60;;;;;;;27.66;nan;-24582.38;5039266;28;20278;-64
2022/09/11 09:03:01;;;;;;;3.47;2.40;;;;;;;27.86;nan;-24587.88;5040056;28;20604;-62
2022/09/11 09:05:42;;;;;;;5.40;2.63;;;;;;;27.41;nan;-24575.53;5046632;28;20179;-63
2022/09/11 09:08:23;;;;;;;4.55;2.90;;;;;;;27.74;nan;-24584.44;5038646;28;20222;-65
2022/09/11 09:11:03;;;;;;;3.92;2.30;;;;;;;27.69;nan;-24583.22;5031496;28;20271;-64
2022/09/11 09:13:54;;;;;;;3.40;2.30;;;;;;;27.59;nan;-24580.59;5038331;28;20186;-63
2022/09/11 09:16:35;;;;;;;3.72;2.50;;;;;;;27.99;nan;-24591.44;5039235;28;20213;-64
2022/09/11 09:19:07;;;;;;;4.43;2.88;;;;;;;28.35;nan;-24601.16;5036230;28;20179;-65
2022/09/11 09:21:50;;;;;;;5.75;3.10;;;;;;;28.44;nan;-24603.47;5038702;28;20227;-66
2022/09/11 09:24:18;;;;;;;3.85;2.92;;;;;;;28.26;nan;-24598.69;5041358;28;20190;-65
2022/09/11 09:26:49;;;;;;;5.22;3.00;;;;;;;28.31;nan;-24600.06;5038880;28;20174;-63
2022/09/11 09:29:30;;;;;;;3.92;2.63;;;;;;;28.27;nan;-24598.81;5040465;28;20195;-65
2022/09/11 09:32:03;;;;;;;6.40;2.90;;;;;;;27.98;nan;-24591.00;5034386;28;20549;-64
2022/09/11 09:34:36;;;;;;;5.55;3.05;;;;;;;28.61;nan;-24608.13;5037190;28;20190;-63
2022/09/11 09:37:11;;;;;;;4.35;2.72;;;;;;;28.71;nan;-24610.72;5041894;28;20179;-63
2022/09/11 09:39:37;;;;;;;4.72;3.20;;;;;;;28.81;nan;-24613.47;5035421;28;20177;-64
2022/09/11 09:42:07;;;;;;;4.63;2.50;;;;;;;28.80;nan;-24613.31;5035739;28;20171;-64
2022/09/11 09:44:53;;;;;;;4.10;2.55;;;;;;;28.51;nan;-24605.53;5045774;28;20191;-64
2022/09/11 09:47:19;;;;;;;4.68;2.45;;;;;;;28.60;nan;-24607.84;5038633;28;20217;-64
2022/09/11 09:49:45;;;;;;;3.22;2.28;;;;;;;28.63;nan;-24608.53;5036411;28;20278;-64
2022/09/11 09:52:23;;;;;;;3.95;2.42;;;;;;;28.94;nan;-24617.16;5037182;28;20175;-63
2022/09/11 09:55:04;;;;;;;3.03;2.17;;;;;;;28.80;nan;-24613.31;5032554;28;20190;-64
2022/09/11 09:57:33;;;;;;;4.20;2.65;;;;;;;28.73;nan;-24611.28;5038897;28;20205;-64
2022/09/11 10:00:08;;;;;;;3.42;2.33;;;;;;;28.94;nan;-24617.00;5036028;28;20278;-64
2022/09/11 10:02:38;;;;;;;3.28;2.10;;;;;;;28.94;nan;-24617.16;5037679;28;20238;-64
2022/09/11 10:05:42;;;;;;;5.35;2.70;;;;;;;29.01;nan;-24618.78;5038441;28;20265;-65
2022/09/11 10:08:32;;;;;;;6.20;3.92;;;;;;;29.02;nan;-24619.06;5036590;28;20246;-65
2022/09/11 10:11:00;;;;;;;4.82;3.28;;;;;;;29.21;nan;-24624.38;4535136;28;20791;-66
2022/09/11 10:13:36;;;;;;;4.30;2.80;;;;;;;29.20;nan;-24623.97;4669874;28;20876;-64
2022/09/11 10:16:04;;;;;;;3.72;2.55;;;;;;;29.04;nan;-24619.59;4638623;28;20601;-64
2022/09/11 10:18:29;;;;;;;3.75;2.80;;;;;;;29.42;nan;-24630.00;5039723;28;20182;-64
2022/09/11 10:21:10;;;;;;;3.53;2.63;;;;;;;29.63;nan;-24635.72;5035883;28;20682;-64
2022/09/11 10:23:49;;;;;;;3.42;2.45;;;;;;;29.48;nan;-24631.63;5037308;28;20193;-65
2022/09/11 10:26:23;;;;;;;3.83;2.80;;;;;;;29.60;nan;-24634.75;5037163;28;20572;-63
2022/09/11 10:28:49;;;;;;;4.80;2.88;;;;;;;29.55;nan;-24633.53;5037848;28;20239;-63
2022/09/11 10:31:17;;;;;;;3.40;2.50;;;;;;;29.43;nan;-24630.25;5036160;28;20721;-64
2022/09/11 10:33:59;;;;;;;5.53;2.55;;;;;;;29.36;nan;-24628.34;5036255;28;20188;-64
2022/09/11 10:36:27;;;;;;;3.08;2.20;;;;;;;29.74;nan;-24638.59;5036622;28;20190;-64
2022/09/11 10:38:55;;;;;;;2.92;2.10;;;;;;;29.72;nan;-24638.19;5035354;28;20269;-64
2022/09/11 10:41:23;;;;;;;4.35;1.95;;;;;;;29.28;nan;-24626.28;5039157;28;20565;-64
2022/09/11 10:44:02;;;;;;;3.97;2.58;;;;;;;29.61;nan;-24635.03;5041324;28;20266;-64
2022/09/11 10:46:38;;;;;;;6.03;1.92;;;;;;;29.67;nan;-24636.81;5037353;28;20257;-64
2022/09/11 10:49:04;;;;;;;3.33;2.00;;;;;;;29.63;nan;-24635.59;5036588;28;20221;-63
2022/09/11 10:51:40;;;;;;;4.10;2.28;;;;;;;29.94;nan;-24643.91;5038315;28;20175;-64
2022/09/11 10:54:37;;;;;;;5.15;2.67;;;;;;;29.90;nan;-24642.81;5037793;28;20200;-64
2022/09/11 10:57:18;;;;;;;5.40;3.38;;;;;;;29.69;nan;-24637.22;5046325;28;20216;-64
2022/09/11 10:59:53;;;;;;;4.95;3.08;;;;;;;29.95;nan;-24644.19;5031131;28;20174;-63
2022/09/11 11:02:27;;;;;;;5.72;2.35;;;;;;;29.94;nan;-24643.91;5030775;28;20532;-62
2022/09/11 11:04:55;;;;;;;3.25;1.77;;;;;;;29.56;nan;-24633.66;5043719;28;20190;-62
2022/09/11 11:07:39;;;;;;;3.72;2.10;;;;;;;29.55;nan;-24633.41;5033024;28;20230;-64
2022/09/11 11:10:20;;;;;;;2.83;2.17;;;;;;;29.62;nan;-24635.44;5041106;28;20190;-63
2022/09/11 11:12:53;;;;;;;3.50;2.45;;;;;;;29.85;nan;-24641.59;5035221;28;20182;-64
2022/09/11 11:15:37;;;;;;;2.78;1.92;;;;;;;29.79;nan;-24639.94;5039119;28;20653;-64
2022/09/11 11:18:32;;;;;;;2.78;2.10;;;;;;;30.03;nan;-24646.50;5035210;28;20183;-65
2022/09/11 11:21:18;;;;;;;3.42;2.40;;;;;;;29.98;nan;-24645.13;5040614;28;20300;-64
2022/09/11 11:24:12;;;;;;;2.55;1.98;;;;;;;30.28;nan;-24653.19;5046852;28;20286;-64
2022/09/11 11:27:10;;;;;;;2.72;2.35;;;;;;;30.46;nan;-24658.09;5030097;28;20189;-63
2022/09/11 11:29:56;;;;;;;2.58;1.85;;;;;;;30.49;nan;-24658.78;5036827;28;20181;-64
2022/09/11 11:32:51;;;;;;;2.30;1.58;;;;;;;30.39;nan;-24656.19;5039506;28;20519;-64
2022/09/11 11:35:21;;;;;;;2.78;2.28;;;;;;;30.55;nan;-24660.41;5040205;28;20330;-64
2022/09/11 11:37:49;;;;;;;4.13;2.53;;;;;;;30.39;nan;-24656.19;5031536;28;20183;-64
2022/09/11 11:40:33;;;;;;;3.35;2.33;;;;;;;30.95;nan;-24671.16;5036837;28;20206;-64
2022/09/11 11:43:04;;;;;;;2.53;1.70;;;;;;;31.04;nan;-24673.75;5037117;28;20220;-64
2022/09/11 11:45:37;;;;;;;3.08;1.80;;;;;;;30.98;nan;-24671.97;5037075;28;20201;-63
2022/09/11 11:48:25;;;;;;;2.28;1.50;;;;;;;31.05;nan;-24673.88;5036464;28;20206;-64
2022/09/11 11:51:01;;;;;;;2.13;1.75;;;;;;;31.54;nan;-24687.06;5034984;28;20260;-64
2022/09/11 11:53:37;;;;;;;3.28;2.05;;;;;;;31.63;nan;-24689.41;5058168;28;20178;-64
2022/09/11 11:56:27;;;;;;;2.47;1.80;;;;;;;31.44;nan;-24684.34;5040317;28;20272;-62
2022/09/11 11:59:12;;;;;;;2.33;1.70;;;;;;;31.36;nan;-24682.31;5030629;28;20275;-64
2022/09/11 12:02:01;;;;;;;2.75;1.75;;;;;;;31.58;nan;-24688.03;5041489;28;20182;-63
2022/09/11 12:04:36;;;;;;;2.75;2.13;;;;;;;31.28;nan;-24680.00;5040288;28;20557;-64